FUA weather

Fundacion Oftalmologica De Santander Heliport
Bucaramanga, Santander Department, Colombia

Public forecast

Using degrees Celsius for public forecast. Weather courtesy of forecast.io.

METAR (pilot weather report)

Closest report is Palonegro Airport, 5.2 nm (9.6 km) NW. Retrieved 2019/03/22 15:00 UTC (58 minutes ago):

SKBG 221500Z 34004KT 9999 SCT015 25/19 A3005

TAF (pilot weather forecast)

Forecast is more than 12 hours old.

Closest forecast is Palonegro Airport, 5.2 nm (9.6 km) NW. Retrieved 2019/03/16 00:00 UTC (7 days ago):

TAF SKBG 152300Z 1600/1624 30005KT 9999 SCT017 SCT070 TEMPO 1600/1602 -RA BECMG 1602/2604 VRB02KT TEMPO 1603/1606 7000 VCSH SCT015TCU TEMPO 1609/1613 8000 SCT015 BKN070 TEMPO 1619/1623 33010KT 8000 TX28/1619Z TN19/1611Z